PWSweather.com
Personal Weather Stations
Station Observations
CHXDAV1
Chamonix, ChamonixmontblancFR 74400

ChamonixChamonixmontblancFR 74400

Lat: 45.914, Lon: 6.851

Elevation: 3376

Station Type: Davis Vantage Pro 2

http://www.meteo-chamonix.net

High Low Average
Temperature 35.1°F1.7°C 29.4°F-1.4°C 33.1°F0.6°C
Dew Point 34.6°F1.4°C 28.7°F-1.8°C 32.6°F0.3°C
Winds Calm Calm Calm Calm Calm Calm
Wind Gusts -- -- --
Humidity 99% 97% 98%
Pressure 30.49 in1032.5 mb 30.04 in1017.3 mb -
Precipitation 0.26 in6.6 mm - -
Hour Temp Dew Point Humidity Winds Wind Gusts Pressure Precip Precip Rate Daily Precip Total
12:00 AM 33.5°F0.8°C 33.0°F0.6°C 98% Calm Calm -- 30.04 in1017.3 mb 0.04 in1.0 mm 0.00 in0.0 mm 0.04 in1.0 mm
12:05 AM 33.5°F0.8°C 33.0°F0.6°C 98% Calm Calm -- 30.04 in1017.3 mb 0.03 in0.8 mm 0.00 in0.0 mm 0.04 in1.0 mm
12:10 AM 33.4°F0.8°C 32.9°F0.5°C 98% Calm Calm -- 30.04 in1017.3 mb 0.04 in1.0 mm 0.12 in3.0 mm 0.01 in0.3 mm
12:15 AM 33.4°F0.8°C 32.9°F0.5°C 98% Calm Calm -- 30.04 in1017.3 mb 0.03 in0.8 mm 0.00 in0.0 mm 0.01 in0.3 mm
12:20 AM 33.3°F0.7°C 32.8°F0.4°C 98% Calm Calm -- 30.04 in1017.3 mb 0.02 in0.5 mm 0.00 in0.0 mm 0.01 in0.3 mm
12:25 AM 33.3°F0.7°C 32.8°F0.4°C 98% Calm Calm -- 30.04 in1017.3 mb 0.02 in0.5 mm 0.00 in0.0 mm 0.01 in0.3 mm
12:30 AM 33.2°F0.7°C 32.7°F0.4°C 98% Calm Calm -- 30.04 in1017.3 mb 0.02 in0.5 mm 0.00 in0.0 mm 0.01 in0.3 mm
12:35 AM 33.2°F0.7°C 32.7°F0.4°C 98% Calm Calm -- 30.04 in1017.3 mb 0.02 in0.5 mm 0.00 in0.0 mm 0.01 in0.3 mm
12:40 AM 33.2°F0.7°C 32.7°F0.4°C 98% Calm Calm -- 30.04 in1017.3 mb 0.02 in0.5 mm 0.00 in0.0 mm 0.02 in0.5 mm
12:45 AM 33.1°F0.6°C 32.6°F0.3°C 98% Calm Calm -- 30.04 in1017.3 mb 0.02 in0.5 mm 0.00 in0.0 mm 0.02 in0.5 mm
12:50 AM 33.0°F0.6°C 32.5°F0.3°C 98% Calm Calm -- 30.04 in1017.3 mb 0.02 in0.5 mm 0.00 in0.0 mm 0.02 in0.5 mm
12:55 AM 33.0°F0.6°C 32.5°F0.3°C 98% Calm Calm -- 30.04 in1017.3 mb 0.02 in0.5 mm 0.00 in0.0 mm 0.02 in0.5 mm
01:00 AM 33.0°F0.6°C 32.5°F0.3°C 98% Calm Calm -- 30.05 in1017.6 mb 0.02 in0.5 mm 0.00 in0.0 mm 0.02 in0.5 mm
01:05 AM 33.0°F0.6°C 32.5°F0.3°C 98% Calm Calm -- 30.04 in1017.3 mb 0.02 in0.5 mm 0.00 in0.0 mm 0.02 in0.5 mm
01:10 AM 32.9°F0.5°C 32.4°F0.2°C 98% Calm Calm -- 30.05 in1017.6 mb 0.01 in0.3 mm 0.00 in0.0 mm 0.02 in0.5 mm
01:15 AM 32.9°F0.5°C 32.4°F0.2°C 98% Calm Calm -- 30.05 in1017.6 mb 0.01 in0.3 mm 0.00 in0.0 mm 0.02 in0.5 mm
01:20 AM 32.9°F0.5°C 32.4°F0.2°C 98% Calm Calm -- 30.05 in1017.6 mb 0.01 in0.3 mm 0.00 in0.0 mm 0.02 in0.5 mm
01:25 AM 32.9°F0.5°C 32.4°F0.2°C 98% Calm Calm -- 30.05 in1017.6 mb 0.01 in0.3 mm 0.00 in0.0 mm 0.02 in0.5 mm
01:30 AM 32.8°F0.4°C 32.3°F0.2°C 98% Calm Calm -- 30.05 in1017.6 mb 0.01 in0.3 mm 0.00 in0.0 mm 0.02 in0.5 mm
01:35 AM 32.8°F0.4°C 32.3°F0.2°C 98% Calm Calm -- 30.05 in1017.6 mb 0.01 in0.3 mm 0.00 in0.0 mm 0.02 in0.5 mm
01:40 AM 32.8°F0.4°C 32.3°F0.2°C 98% Calm Calm -- 30.05 in1017.6 mb 0.00 in0.0 mm 0.00 in0.0 mm 0.02 in0.5 mm
01:45 AM 32.8°F0.4°C 32.3°F0.2°C 98% Calm Calm -- 30.05 in1017.6 mb 0.00 in0.0 mm 0.00 in0.0 mm 0.02 in0.5 mm
01:50 AM 32.8°F0.4°C 32.3°F0.2°C 98% Calm Calm -- 30.06 in1017.9 mb 0.00 in0.0 mm 0.00 in0.0 mm 0.02 in0.5 mm
01:55 AM 32.7°F0.4°C 32.2°F0.1°C 98% Calm Calm -- 30.05 in1017.6 mb 0.00 in0.0 mm 0.00 in0.0 mm 0.02 in0.5 mm
02:00 AM 32.7°F0.4°C 32.2°F0.1°C 98% Calm Calm -- 30.06 in1017.9 mb 0.01 in0.3 mm 0.01 in0.3 mm 0.02 in0.5 mm
02:05 AM 32.7°F0.4°C 32.2°F0.1°C 98% Calm Calm -- 30.06 in1017.9 mb 0.01 in0.3 mm 0.00 in0.0 mm 0.02 in0.5 mm
02:10 AM 32.7°F0.4°C 32.2°F0.1°C 98% Calm Calm -- 30.06 in1017.9 mb 0.01 in0.3 mm 0.00 in0.0 mm 0.02 in0.5 mm
02:15 AM 32.7°F0.4°C 32.2°F0.1°C 98% Calm Calm -- 30.06 in1017.9 mb 0.01 in0.3 mm 0.00 in0.0 mm 0.02 in0.5 mm
02:20 AM 32.7°F0.4°C 32.2°F0.1°C 98% Calm Calm -- 30.06 in1017.9 mb 0.01 in0.3 mm 0.00 in0.0 mm 0.02 in0.5 mm
02:25 AM 32.6°F0.3°C 32.1°F0.1°C 98% Calm Calm -- 30.07 in1018.3 mb 0.01 in0.3 mm 0.00 in0.0 mm 0.02 in0.5 mm
02:30 AM 32.7°F0.4°C 32.2°F0.1°C 98% Calm Calm -- 30.07 in1018.3 mb 0.01 in0.3 mm 0.00 in0.0 mm 0.02 in0.5 mm
02:35 AM 32.6°F0.3°C 32.1°F0.1°C 98% Calm Calm -- 30.07 in1018.3 mb 0.01 in0.3 mm 0.00 in0.0 mm 0.02 in0.5 mm
02:40 AM 32.6°F0.3°C 32.1°F0.1°C 98% Calm Calm -- 30.07 in1018.3 mb 0.01 in0.3 mm 0.00 in0.0 mm 0.02 in0.5 mm
02:45 AM 32.6°F0.3°C 32.1°F0.1°C 98% Calm Calm -- 30.07 in1018.3 mb 0.01 in0.3 mm 0.00 in0.0 mm 0.02 in0.5 mm
02:50 AM 32.6°F0.3°C 32.1°F0.1°C 98% Calm Calm -- 30.08 in1018.6 mb 0.01 in0.3 mm 0.00 in0.0 mm 0.02 in0.5 mm
02:55 AM 32.6°F0.3°C 32.1°F0.1°C 98% Calm Calm -- 30.08 in1018.6 mb 0.01 in0.3 mm 0.00 in0.0 mm 0.02 in0.5 mm
03:00 AM 32.6°F0.3°C 32.1°F0.1°C 98% Calm Calm -- 30.08 in1018.6 mb 0.00 in0.0 mm 0.00 in0.0 mm 0.02 in0.5 mm
03:05 AM 32.6°F0.3°C 32.1°F0.1°C 98% Calm Calm -- 30.08 in1018.6 mb 0.00 in0.0 mm 0.00 in0.0 mm 0.02 in0.5 mm
03:10 AM 32.6°F0.3°C 32.1°F0.1°C 98% Calm Calm -- 30.08 in1018.6 mb 0.00 in0.0 mm 0.00 in0.0 mm 0.02 in0.5 mm
03:15 AM 32.6°F0.3°C 32.1°F0.1°C 98% Calm Calm -- 30.08 in1018.6 mb 0.00 in0.0 mm 0.00 in0.0 mm 0.02 in0.5 mm
03:20 AM 32.6°F0.3°C 32.1°F0.1°C 98% Calm Calm -- 30.09 in1019.0 mb 0.00 in0.0 mm 0.00 in0.0 mm 0.02 in0.5 mm
03:25 AM 32.6°F0.3°C 32.1°F0.1°C 98% Calm Calm -- 30.09 in1019.0 mb 0.00 in0.0 mm 0.00 in0.0 mm 0.02 in0.5 mm
03:30 AM 32.6°F0.3°C 32.1°F0.1°C 98% Calm Calm -- 30.09 in1019.0 mb 0.01 in0.3 mm 0.12 in3.0 mm 0.03 in0.8 mm
03:35 AM 32.6°F0.3°C 32.1°F0.1°C 98% Calm Calm -- 30.09 in1019.0 mb 0.01 in0.3 mm 0.00 in0.0 mm 0.03 in0.8 mm
03:40 AM 32.6°F0.3°C 32.1°F0.1°C 98% Calm Calm -- 30.09 in1019.0 mb 0.01 in0.3 mm 0.00 in0.0 mm 0.03 in0.8 mm
03:45 AM 32.6°F0.3°C 32.1°F0.1°C 98% Calm Calm -- 30.09 in1019.0 mb 0.01 in0.3 mm 0.00 in0.0 mm 0.03 in0.8 mm
03:50 AM 32.6°F0.3°C 32.1°F0.1°C 98% Calm Calm -- 30.10 in1019.3 mb 0.01 in0.3 mm 0.00 in0.0 mm 0.03 in0.8 mm
03:55 AM 32.6°F0.3°C 32.1°F0.1°C 98% Calm Calm -- 30.10 in1019.3 mb 0.01 in0.3 mm 0.00 in0.0 mm 0.03 in0.8 mm
04:00 AM 32.6°F0.3°C 32.1°F0.1°C 98% Calm Calm -- 30.10 in1019.3 mb 0.01 in0.3 mm 0.00 in0.0 mm 0.03 in0.8 mm
04:05 AM 32.6°F0.3°C 32.1°F0.1°C 98% Calm Calm -- 30.10 in1019.3 mb 0.01 in0.3 mm 0.00 in0.0 mm 0.03 in0.8 mm
04:10 AM 32.6°F0.3°C 32.1°F0.1°C 98% Calm Calm -- 30.10 in1019.3 mb 0.01 in0.3 mm 0.00 in0.0 mm 0.03 in0.8 mm
04:15 AM 32.7°F0.4°C 32.2°F0.1°C 98% Calm Calm -- 30.11 in1019.6 mb 0.01 in0.3 mm 0.00 in0.0 mm 0.03 in0.8 mm
04:20 AM 32.7°F0.4°C 32.2°F0.1°C 98% Calm Calm -- 30.11 in1019.6 mb 0.01 in0.3 mm 0.00 in0.0 mm 0.03 in0.8 mm
04:25 AM 32.7°F0.4°C 32.2°F0.1°C 98% Calm Calm -- 30.11 in1019.6 mb 0.01 in0.3 mm 0.00 in0.0 mm 0.03 in0.8 mm
04:30 AM 32.7°F0.4°C 32.2°F0.1°C 98% Calm Calm -- 30.11 in1019.6 mb 0.00 in0.0 mm 0.00 in0.0 mm 0.03 in0.8 mm
04:35 AM 32.7°F0.4°C 32.2°F0.1°C 98% Calm Calm -- 30.11 in1019.6 mb 0.00 in0.0 mm 0.00 in0.0 mm 0.03 in0.8 mm
04:40 AM 32.7°F0.4°C 32.2°F0.1°C 98% Calm Calm -- 30.12 in1020.0 mb 0.00 in0.0 mm 0.00 in0.0 mm 0.03 in0.8 mm
04:45 AM 32.7°F0.4°C 32.2°F0.1°C 98% Calm Calm -- 30.12 in1020.0 mb 0.00 in0.0 mm 0.00 in0.0 mm 0.03 in0.8 mm
04:50 AM 32.7°F0.4°C 32.2°F0.1°C 98% Calm Calm -- 30.12 in1020.0 mb 0.01 in0.3 mm 0.12 in3.0 mm 0.04 in1.0 mm
04:55 AM 32.7°F0.4°C 32.2°F0.1°C 98% Calm Calm -- 30.12 in1020.0 mb 0.01 in0.3 mm 0.00 in0.0 mm 0.04 in1.0 mm
05:00 AM 32.7°F0.4°C 32.2°F0.1°C 98% Calm Calm -- 30.12 in1020.0 mb 0.01 in0.3 mm 0.00 in0.0 mm 0.04 in1.0 mm
05:05 AM 32.7°F0.4°C 32.2°F0.1°C 98% Calm Calm -- 30.12 in1020.0 mb 0.01 in0.3 mm 0.00 in0.0 mm 0.04 in1.0 mm
05:10 AM 32.7°F0.4°C 32.2°F0.1°C 98% Calm Calm -- 30.13 in1020.3 mb 0.01 in0.3 mm 0.00 in0.0 mm 0.04 in1.0 mm
05:15 AM 32.7°F0.4°C 32.2°F0.1°C 98% Calm Calm -- 30.13 in1020.3 mb 0.01 in0.3 mm 0.00 in0.0 mm 0.04 in1.0 mm
05:20 AM 32.7°F0.4°C 32.2°F0.1°C 98% Calm Calm -- 30.13 in1020.3 mb 0.01 in0.3 mm 0.00 in0.0 mm 0.04 in1.0 mm
05:25 AM 32.8°F0.4°C 32.3°F0.2°C 98% Calm Calm -- 30.13 in1020.3 mb 0.01 in0.3 mm 0.00 in0.0 mm 0.04 in1.0 mm
05:30 AM 32.8°F0.4°C 32.3°F0.2°C 98% Calm Calm -- 30.13 in1020.3 mb 0.01 in0.3 mm 0.00 in0.0 mm 0.04 in1.0 mm
05:35 AM 32.8°F0.4°C 32.3°F0.2°C 98% Calm Calm -- 30.14 in1020.7 mb 0.01 in0.3 mm 0.00 in0.0 mm 0.04 in1.0 mm
05:40 AM 32.7°F0.4°C 32.2°F0.1°C 98% Calm Calm -- 30.14 in1020.7 mb 0.01 in0.3 mm 0.00 in0.0 mm 0.04 in1.0 mm
05:45 AM 32.8°F0.4°C 32.3°F0.2°C 98% Calm Calm -- 30.14 in1020.7 mb 0.01 in0.3 mm 0.00 in0.0 mm 0.04 in1.0 mm
05:50 AM 32.8°F0.4°C 32.3°F0.2°C 98% Calm Calm -- 30.14 in1020.7 mb 0.00 in0.0 mm 0.00 in0.0 mm 0.04 in1.0 mm
05:55 AM 32.8°F0.4°C 32.3°F0.2°C 98% Calm Calm -- 30.14 in1020.7 mb 0.00 in0.0 mm 0.00 in0.0 mm 0.04 in1.0 mm
06:00 AM 32.7°F0.4°C 32.2°F0.1°C 98% Calm Calm -- 30.14 in1020.7 mb 0.00 in0.0 mm 0.00 in0.0 mm 0.04 in1.0 mm
06:05 AM 32.7°F0.4°C 32.2°F0.1°C 98% Calm Calm -- 30.15 in1021.0 mb 0.00 in0.0 mm 0.00 in0.0 mm 0.04 in1.0 mm
06:10 AM 32.8°F0.4°C 32.3°F0.2°C 98% Calm Calm -- 30.15 in1021.0 mb 0.00 in0.0 mm 0.00 in0.0 mm 0.04 in1.0 mm
06:15 AM 32.8°F0.4°C 32.3°F0.2°C 98% Calm Calm -- 30.16 in1021.3 mb 0.00 in0.0 mm 0.00 in0.0 mm 0.04 in1.0 mm
06:20 AM 32.8°F0.4°C 32.3°F0.2°C 98% Calm Calm -- 30.16 in1021.3 mb 0.00 in0.0 mm 0.00 in0.0 mm 0.04 in1.0 mm
06:25 AM 32.8°F0.4°C 32.3°F0.2°C 98% Calm Calm -- 30.16 in1021.3 mb 0.00 in0.0 mm 0.00 in0.0 mm 0.04 in1.0 mm
06:30 AM 32.8°F0.4°C 32.3°F0.2°C 98% Calm Calm -- 30.17 in1021.7 mb 0.00 in0.0 mm 0.00 in0.0 mm 0.04 in1.0 mm
06:35 AM 32.8°F0.4°C 32.3°F0.2°C 98% Calm Calm -- 30.17 in1021.7 mb 0.00 in0.0 mm 0.00 in0.0 mm 0.04 in1.0 mm
06:40 AM 32.8°F0.4°C 32.3°F0.2°C 98% Calm Calm -- 30.17 in1021.7 mb 0.00 in0.0 mm 0.00 in0.0 mm 0.04 in1.0 mm
06:45 AM 32.8°F0.4°C 32.3°F0.2°C 98% Calm Calm -- 30.17 in1021.7 mb 0.00 in0.0 mm 0.00 in0.0 mm 0.04 in1.0 mm
06:50 AM 32.7°F0.4°C 32.2°F0.1°C 98% Calm Calm -- 30.18 in1022.0 mb 0.00 in0.0 mm 0.00 in0.0 mm 0.04 in1.0 mm
06:55 AM 32.7°F0.4°C 32.2°F0.1°C 98% Calm Calm -- 30.18 in1022.0 mb 0.00 in0.0 mm 0.00 in0.0 mm 0.04 in1.0 mm
07:00 AM 32.8°F0.4°C 32.3°F0.2°C 98% Calm Calm -- 30.18 in1022.0 mb 0.00 in0.0 mm 0.00 in0.0 mm 0.04 in1.0 mm
07:05 AM 32.8°F0.4°C 32.3°F0.2°C 98% Calm Calm -- 30.19 in1022.4 mb 0.00 in0.0 mm 0.00 in0.0 mm 0.04 in1.0 mm
07:10 AM 32.8°F0.4°C 32.3°F0.2°C 98% Calm Calm -- 30.19 in1022.4 mb 0.00 in0.0 mm 0.00 in0.0 mm 0.04 in1.0 mm
07:15 AM 32.7°F0.4°C 32.2°F0.1°C 98% Calm Calm -- 30.19 in1022.4 mb 0.00 in0.0 mm 0.00 in0.0 mm 0.04 in1.0 mm
07:20 AM 32.8°F0.4°C 32.3°F0.2°C 98% Calm Calm -- 30.20 in1022.7 mb 0.00 in0.0 mm 0.00 in0.0 mm 0.04 in1.0 mm
07:25 AM 32.7°F0.4°C 32.2°F0.1°C 98% Calm Calm -- 30.20 in1022.7 mb 0.00 in0.0 mm 0.00 in0.0 mm 0.04 in1.0 mm
07:30 AM 32.7°F0.4°C 32.2°F0.1°C 98% Calm Calm -- 30.20 in1022.7 mb 0.01 in0.3 mm 0.12 in3.0 mm 0.05 in1.3 mm
07:35 AM 32.7°F0.4°C 32.2°F0.1°C 98% Calm Calm -- 30.21 in1023.0 mb 0.01 in0.3 mm 0.00 in0.0 mm 0.05 in1.3 mm
07:40 AM 32.7°F0.4°C 32.2°F0.1°C 98% Calm Calm -- 30.21 in1023.0 mb 0.01 in0.3 mm 0.00 in0.0 mm 0.05 in1.3 mm
07:45 AM 32.7°F0.4°C 32.2°F0.1°C 98% Calm Calm -- 30.21 in1023.0 mb 0.01 in0.3 mm 0.00 in0.0 mm 0.05 in1.3 mm
07:50 AM 32.7°F0.4°C 32.2°F0.1°C 98% Calm Calm -- 30.21 in1023.0 mb 0.01 in0.3 mm 0.00 in0.0 mm 0.05 in1.3 mm
07:55 AM 32.7°F0.4°C 32.2°F0.1°C 98% Calm Calm -- 30.21 in1023.0 mb 0.01 in0.3 mm 0.00 in0.0 mm 0.05 in1.3 mm
08:00 AM 32.7°F0.4°C 32.2°F0.1°C 98% Calm Calm -- 30.21 in1023.0 mb 0.01 in0.3 mm 0.00 in0.0 mm 0.05 in1.3 mm
08:05 AM 32.7°F0.4°C 32.2°F0.1°C 98% Calm Calm -- 30.22 in1023.4 mb 0.01 in0.3 mm 0.00 in0.0 mm 0.05 in1.3 mm
08:10 AM 32.7°F0.4°C 32.2°F0.1°C 98% Calm Calm -- 30.23 in1023.7 mb 0.01 in0.3 mm 0.00 in0.0 mm 0.05 in1.3 mm
08:15 AM 32.7°F0.4°C 32.2°F0.1°C 98% Calm Calm -- 30.23 in1023.7 mb 0.01 in0.3 mm 0.00 in0.0 mm 0.05 in1.3 mm
08:20 AM 32.7°F0.4°C 32.2°F0.1°C 98% Calm Calm -- 30.23 in1023.7 mb 0.01 in0.3 mm 0.00 in0.0 mm 0.05 in1.3 mm
08:25 AM 32.7°F0.4°C 32.2°F0.1°C 98% Calm Calm -- 30.23 in1023.7 mb 0.01 in0.3 mm 0.00 in0.0 mm 0.05 in1.3 mm
08:30 AM 32.7°F0.4°C 32.2°F0.1°C 98% Calm Calm -- 30.23 in1023.7 mb 0.00 in0.0 mm 0.00 in0.0 mm 0.05 in1.3 mm
08:35 AM 32.7°F0.4°C 32.2°F0.1°C 98% Calm Calm -- 30.24 in1024.0 mb 0.00 in0.0 mm 0.00 in0.0 mm 0.05 in1.3 mm
08:40 AM 32.7°F0.4°C 32.2°F0.1°C 98% Calm Calm -- 30.24 in1024.0 mb 0.00 in0.0 mm 0.00 in0.0 mm 0.05 in1.3 mm
08:45 AM 32.7°F0.4°C 32.2°F0.1°C 98% Calm Calm -- 30.25 in1024.4 mb 0.00 in0.0 mm 0.00 in0.0 mm 0.05 in1.3 mm
08:50 AM 32.8°F0.4°C 32.3°F0.2°C 98% Calm Calm -- 30.25 in1024.4 mb 0.00 in0.0 mm 0.00 in0.0 mm 0.05 in1.3 mm
08:55 AM 32.8°F0.4°C 32.3°F0.2°C 98% Calm Calm -- 30.25 in1024.4 mb 0.00 in0.0 mm 0.00 in0.0 mm 0.05 in1.3 mm
09:00 AM 32.8°F0.4°C 32.3°F0.2°C 98% Calm Calm -- 30.26 in1024.7 mb 0.00 in0.0 mm 0.00 in0.0 mm 0.05 in1.3 mm
09:05 AM 32.8°F0.4°C 32.3°F0.2°C 98% Calm Calm -- 30.26 in1024.7 mb 0.00 in0.0 mm 0.00 in0.0 mm 0.05 in1.3 mm
09:10 AM 32.8°F0.4°C 32.3°F0.2°C 98% Calm Calm -- 30.26 in1024.7 mb 0.00 in0.0 mm 0.00 in0.0 mm 0.05 in1.3 mm
09:15 AM 32.8°F0.4°C 32.3°F0.2°C 98% Calm Calm -- 30.27 in1025.1 mb 0.00 in0.0 mm 0.00 in0.0 mm 0.05 in1.3 mm
09:20 AM 32.8°F0.4°C 32.3°F0.2°C 98% Calm Calm -- 30.27 in1025.1 mb 0.00 in0.0 mm 0.00 in0.0 mm 0.05 in1.3 mm
09:25 AM 32.8°F0.4°C 32.3°F0.2°C 98% Calm Calm -- 30.27 in1025.1 mb 0.00 in0.0 mm 0.00 in0.0 mm 0.05 in1.3 mm
09:30 AM 32.8°F0.4°C 32.3°F0.2°C 98% Calm Calm -- 30.27 in1025.1 mb 0.00 in0.0 mm 0.00 in0.0 mm 0.05 in1.3 mm
09:35 AM 32.8°F0.4°C 32.3°F0.2°C 98% Calm Calm -- 30.28 in1025.4 mb 0.00 in0.0 mm 0.00 in0.0 mm 0.05 in1.3 mm
09:40 AM 32.8°F0.4°C 32.3°F0.2°C 98% Calm Calm -- 30.28 in1025.4 mb 0.00 in0.0 mm 0.00 in0.0 mm 0.05 in1.3 mm
09:45 AM 32.9°F0.5°C 32.4°F0.2°C 98% Calm Calm -- 30.29 in1025.7 mb 0.00 in0.0 mm 0.00 in0.0 mm 0.05 in1.3 mm
09:50 AM 32.9°F0.5°C 32.4°F0.2°C 98% Calm Calm -- 30.29 in1025.7 mb 0.01 in0.3 mm 0.12 in3.0 mm 0.06 in1.5 mm
09:55 AM 32.9°F0.5°C 32.4°F0.2°C 98% Calm Calm -- 30.29 in1025.7 mb 0.01 in0.3 mm 0.00 in0.0 mm 0.06 in1.5 mm
10:00 AM 32.9°F0.5°C 32.4°F0.2°C 98% Calm Calm -- 30.29 in1025.7 mb 0.01 in0.3 mm 0.00 in0.0 mm 0.06 in1.5 mm
10:05 AM 33.0°F0.6°C 32.5°F0.3°C 98% Calm Calm -- 30.30 in1026.1 mb 0.01 in0.3 mm 0.00 in0.0 mm 0.06 in1.5 mm
10:10 AM 33.0°F0.6°C 32.5°F0.3°C 98% Calm Calm -- 30.30 in1026.1 mb 0.01 in0.3 mm 0.00 in0.0 mm 0.06 in1.5 mm
10:15 AM 33.1°F0.6°C 32.9°F0.5°C 99% Calm Calm -- 30.30 in1026.1 mb 0.01 in0.3 mm 0.00 in0.0 mm 0.06 in1.5 mm
10:20 AM 33.1°F0.6°C 32.9°F0.5°C 99% Calm Calm -- 30.31 in1026.4 mb 0.02 in0.5 mm 0.12 in3.0 mm 0.06 in1.5 mm
10:25 AM 33.2°F0.7°C 33.0°F0.6°C 99% Calm Calm -- 30.31 in1026.4 mb 0.02 in0.5 mm 0.00 in0.0 mm 0.06 in1.5 mm
10:30 AM 33.2°F0.7°C 33.0°F0.6°C 99% Calm Calm -- 30.31 in1026.4 mb 0.02 in0.5 mm 0.00 in0.0 mm 0.06 in1.5 mm
10:35 AM 33.2°F0.7°C 33.0°F0.6°C 99% Calm Calm -- 30.31 in1026.4 mb 0.02 in0.5 mm 0.00 in0.0 mm 0.06 in1.5 mm
10:40 AM 33.3°F0.7°C 33.0°F0.6°C 99% Calm Calm -- 30.32 in1026.8 mb 0.02 in0.5 mm 0.00 in0.0 mm 0.06 in1.5 mm
10:45 AM 33.3°F0.7°C 33.0°F0.6°C 99% Calm Calm -- 30.32 in1026.8 mb 0.02 in0.5 mm 0.00 in0.0 mm 0.07 in1.8 mm
10:50 AM 33.3°F0.7°C 33.0°F0.6°C 99% Calm Calm -- 30.32 in1026.8 mb 0.02 in0.5 mm 0.00 in0.0 mm 0.07 in1.8 mm
10:55 AM 33.3°F0.7°C 32.8°F0.4°C 98% Calm Calm -- 30.32 in1026.8 mb 0.02 in0.5 mm 0.00 in0.0 mm 0.07 in1.8 mm
11:00 AM 33.4°F0.8°C 32.9°F0.5°C 98% Calm Calm -- 30.32 in1026.8 mb 0.02 in0.5 mm 0.00 in0.0 mm 0.07 in1.8 mm
11:05 AM 33.4°F0.8°C 32.9°F0.5°C 98% Calm Calm -- 30.32 in1026.8 mb 0.02 in0.5 mm 0.00 in0.0 mm 0.07 in1.8 mm
11:10 AM 33.5°F0.8°C 33.0°F0.6°C 98% Calm Calm -- 30.32 in1026.8 mb 0.02 in0.5 mm 0.00 in0.0 mm 0.08 in2.0 mm
11:15 AM 33.5°F0.8°C 33.0°F0.6°C 98% Calm Calm -- 30.32 in1026.8 mb 0.02 in0.5 mm 0.00 in0.0 mm 0.08 in2.0 mm
11:20 AM 33.5°F0.8°C 33.0°F0.6°C 98% Calm Calm -- 30.32 in1026.8 mb 0.02 in0.5 mm 0.00 in0.0 mm 0.08 in2.0 mm
11:25 AM 33.6°F0.9°C 33.1°F0.6°C 98% Calm Calm -- 30.32 in1026.8 mb 0.02 in0.5 mm 0.00 in0.0 mm 0.08 in2.0 mm
11:30 AM 33.7°F0.9°C 33.4°F0.8°C 99% Calm Calm -- 30.32 in1026.8 mb 0.02 in0.5 mm 0.00 in0.0 mm 0.08 in2.0 mm
11:35 AM 33.7°F0.9°C 33.4°F0.8°C 99% Calm Calm -- 30.33 in1027.1 mb 0.02 in0.5 mm 0.00 in0.0 mm 0.09 in2.3 mm
11:40 AM 33.8°F1.0°C 33.5°F0.8°C 99% Calm Calm -- 30.33 in1027.1 mb 0.02 in0.5 mm 0.00 in0.0 mm 0.09 in2.3 mm
11:45 AM 33.8°F1.0°C 33.5°F0.8°C 99% Calm Calm -- 30.33 in1027.1 mb 0.02 in0.5 mm 0.00 in0.0 mm 0.09 in2.3 mm
11:50 AM 33.7°F0.9°C 33.4°F0.8°C 99% Calm Calm -- 30.33 in1027.1 mb 0.02 in0.5 mm 0.00 in0.0 mm 0.09 in2.3 mm
11:55 AM 33.7°F0.9°C 33.4°F0.8°C 99% Calm Calm -- 30.33 in1027.1 mb 0.02 in0.5 mm 0.00 in0.0 mm 0.09 in2.3 mm
12:00 PM 33.7°F0.9°C 33.4°F0.8°C 99% Calm Calm -- 30.34 in1027.4 mb 0.02 in0.5 mm 0.00 in0.0 mm 0.09 in2.3 mm
12:05 PM 33.7°F0.9°C 33.4°F0.8°C 99% Calm Calm -- 30.34 in1027.4 mb 0.02 in0.5 mm 0.00 in0.0 mm 0.09 in2.3 mm
12:10 PM 33.7°F0.9°C 33.4°F0.8°C 99% Calm Calm -- 30.34 in1027.4 mb 0.02 in0.5 mm 0.00 in0.0 mm 0.10 in2.5 mm
12:15 PM 33.7°F0.9°C 33.4°F0.8°C 99% Calm Calm -- 30.34 in1027.4 mb 0.02 in0.5 mm 0.00 in0.0 mm 0.10 in2.5 mm
12:20 PM 33.7°F0.9°C 33.4°F0.8°C 99% Calm Calm -- 30.34 in1027.4 mb 0.02 in0.5 mm 0.00 in0.0 mm 0.10 in2.5 mm
12:25 PM 33.7°F0.9°C 33.4°F0.8°C 99% Calm Calm -- 30.34 in1027.4 mb 0.03 in0.8 mm 0.12 in3.0 mm 0.11 in2.8 mm
12:30 PM 33.7°F0.9°C 33.4°F0.8°C 99% Calm Calm -- 30.34 in1027.4 mb 0.03 in0.8 mm 0.00 in0.0 mm 0.11 in2.8 mm
12:35 PM 33.7°F0.9°C 33.4°F0.8°C 99% Calm Calm -- 30.34 in1027.4 mb 0.02 in0.5 mm 0.00 in0.0 mm 0.11 in2.8 mm
12:40 PM 33.7°F0.9°C 33.4°F0.8°C 99% Calm Calm -- 30.34 in1027.4 mb 0.03 in0.8 mm 0.12 in3.0 mm 0.12 in3.0 mm
12:45 PM 33.7°F0.9°C 33.4°F0.8°C 99% Calm Calm -- 30.34 in1027.4 mb 0.03 in0.8 mm 0.00 in0.0 mm 0.12 in3.0 mm
12:50 PM 33.7°F0.9°C 33.2°F0.7°C 98% Calm Calm -- 30.34 in1027.4 mb 0.02 in0.5 mm 0.00 in0.0 mm 0.12 in3.0 mm
12:55 PM 33.7°F0.9°C 33.2°F0.7°C 98% Calm Calm -- 30.34 in1027.4 mb 0.02 in0.5 mm 0.00 in0.0 mm 0.12 in3.0 mm
01:00 PM 33.7°F0.9°C 33.2°F0.7°C 98% Calm Calm -- 30.34 in1027.4 mb 0.03 in0.8 mm 0.01 in0.3 mm 0.13 in3.3 mm
01:05 PM 33.7°F0.9°C 33.2°F0.7°C 98% Calm Calm -- 30.34 in1027.4 mb 0.03 in0.8 mm 0.00 in0.0 mm 0.13 in3.3 mm
01:10 PM 33.8°F1.0°C 33.3°F0.7°C 98% Calm Calm -- 30.34 in1027.4 mb 0.02 in0.5 mm 0.00 in0.0 mm 0.13 in3.3 mm
01:15 PM 33.8°F1.0°C 33.3°F0.7°C 98% Calm Calm -- 30.34 in1027.4 mb 0.03 in0.8 mm 0.12 in3.0 mm 0.13 in3.3 mm
01:20 PM 33.8°F1.0°C 33.3°F0.7°C 98% Calm Calm -- 30.34 in1027.4 mb 0.03 in0.8 mm 0.00 in0.0 mm 0.13 in3.3 mm
01:25 PM 33.9°F1.1°C 33.4°F0.8°C 98% Calm Calm -- 30.34 in1027.4 mb 0.02 in0.5 mm 0.00 in0.0 mm 0.13 in3.3 mm
01:30 PM 33.9°F1.1°C 33.4°F0.8°C 98% Calm Calm -- 30.34 in1027.4 mb 0.03 in0.8 mm 0.12 in3.0 mm 0.14 in3.6 mm
01:35 PM 34.1°F1.2°C 33.6°F0.9°C 98% Calm Calm -- 30.34 in1027.4 mb 0.03 in0.8 mm 0.00 in0.0 mm 0.14 in3.6 mm
01:40 PM 34.1°F1.2°C 33.8°F1.0°C 99% Calm Calm -- 30.34 in1027.4 mb 0.02 in0.5 mm 0.00 in0.0 mm 0.14 in3.6 mm
01:45 PM 34.1°F1.2°C 33.8°F1.0°C 99% Calm Calm -- 30.34 in1027.4 mb 0.03 in0.8 mm 0.12 in3.0 mm 0.15 in3.8 mm
01:50 PM 34.2°F1.2°C 33.9°F1.1°C 99% Calm Calm -- 30.34 in1027.4 mb 0.03 in0.8 mm 0.00 in0.0 mm 0.15 in3.8 mm
01:55 PM 34.3°F1.3°C 34.0°F1.1°C 99% Calm Calm -- 30.34 in1027.4 mb 0.03 in0.8 mm 0.00 in0.0 mm 0.15 in3.8 mm
02:00 PM 34.4°F1.3°C 33.9°F1.1°C 98% Calm Calm -- 30.35 in1027.8 mb 0.03 in0.8 mm 0.00 in0.0 mm 0.16 in4.1 mm
02:05 PM 34.4°F1.3°C 33.9°F1.1°C 98% Calm Calm -- 30.35 in1027.8 mb 0.03 in0.8 mm 0.00 in0.0 mm 0.16 in4.1 mm
02:10 PM 34.5°F1.4°C 34.0°F1.1°C 98% Calm Calm -- 30.35 in1027.8 mb 0.04 in1.0 mm 0.12 in3.0 mm 0.17 in4.3 mm
02:15 PM 34.5°F1.4°C 34.0°F1.1°C 98% Calm Calm -- 30.35 in1027.8 mb 0.03 in0.8 mm 0.00 in0.0 mm 0.17 in4.3 mm
02:20 PM 34.5°F1.4°C 34.0°F1.1°C 98% Calm Calm -- 30.36 in1028.1 mb 0.04 in1.0 mm 0.12 in3.0 mm 0.17 in4.3 mm
02:25 PM 34.5°F1.4°C 34.0°F1.1°C 98% Calm Calm -- 30.36 in1028.1 mb 0.04 in1.0 mm 0.00 in0.0 mm 0.17 in4.3 mm
02:30 PM 34.6°F1.4°C 34.1°F1.2°C 98% Calm Calm -- 30.36 in1028.1 mb 0.03 in0.8 mm 0.00 in0.0 mm 0.17 in4.3 mm
02:35 PM 34.7°F1.5°C 34.4°F1.3°C 99% Calm Calm -- 30.36 in1028.1 mb 0.04 in1.0 mm 0.12 in3.0 mm 0.18 in4.6 mm
02:40 PM 34.8°F1.6°C 34.3°F1.3°C 98% Calm Calm -- 30.36 in1028.1 mb 0.04 in1.0 mm 0.00 in0.0 mm 0.18 in4.6 mm
02:45 PM 34.9°F1.6°C 34.4°F1.3°C 98% Calm Calm -- 30.36 in1028.1 mb 0.04 in1.0 mm 0.00 in0.0 mm 0.19 in4.8 mm
02:50 PM 35.0°F1.7°C 34.5°F1.4°C 98% Calm Calm -- 30.37 in1028.4 mb 0.05 in1.3 mm 0.12 in3.0 mm 0.20 in5.1 mm
02:55 PM 35.1°F1.7°C 34.6°F1.4°C 98% Calm Calm -- 30.37 in1028.4 mb 0.04 in1.0 mm 0.00 in0.0 mm 0.20 in5.1 mm
03:00 PM 35.1°F1.7°C 34.6°F1.4°C 98% Calm Calm -- 30.37 in1028.4 mb 0.05 in1.3 mm 0.01 in0.3 mm 0.20 in5.1 mm
03:05 PM 35.1°F1.7°C 34.6°F1.4°C 98% Calm Calm -- 30.37 in1028.4 mb 0.05 in1.3 mm 0.00 in0.0 mm 0.20 in5.1 mm
03:10 PM 35.1°F1.7°C 34.6°F1.4°C 98% Calm Calm -- 30.38 in1028.8 mb 0.05 in1.3 mm 0.00 in0.0 mm 0.21 in5.3 mm
03:15 PM 35.0°F1.7°C 34.5°F1.4°C 98% Calm Calm -- 30.39 in1029.1 mb 0.05 in1.3 mm 0.00 in0.0 mm 0.21 in5.3 mm
03:20 PM 35.0°F1.7°C 34.5°F1.4°C 98% Calm Calm -- 30.39 in1029.1 mb 0.04 in1.0 mm 0.00 in0.0 mm 0.21 in5.3 mm
03:25 PM 35.0°F1.7°C 34.5°F1.4°C 98% Calm Calm -- 30.39 in1029.1 mb 0.05 in1.3 mm 0.12 in3.0 mm 0.22 in5.6 mm
03:30 PM 35.0°F1.7°C 34.5°F1.4°C 98% Calm Calm -- 30.39 in1029.1 mb 0.04 in1.0 mm 0.00 in0.0 mm 0.22 in5.6 mm
03:35 PM 35.0°F1.7°C 34.5°F1.4°C 98% Calm Calm -- 30.39 in1029.1 mb 0.04 in1.0 mm 0.00 in0.0 mm 0.22 in5.6 mm
03:40 PM 35.0°F1.7°C 34.5°F1.4°C 98% Calm Calm -- 30.40 in1029.5 mb 0.04 in1.0 mm 0.00 in0.0 mm 0.23 in5.8 mm
03:45 PM 35.0°F1.7°C 34.5°F1.4°C 98% Calm Calm -- 30.40 in1029.5 mb 0.04 in1.0 mm 0.00 in0.0 mm 0.23 in5.8 mm
03:50 PM 35.0°F1.7°C 34.5°F1.4°C 98% Calm Calm -- 30.40 in1029.5 mb 0.03 in0.8 mm 0.00 in0.0 mm 0.23 in5.8 mm
03:55 PM 35.0°F1.7°C 34.5°F1.4°C 98% Calm Calm -- 30.41 in1029.8 mb 0.03 in0.8 mm 0.00 in0.0 mm 0.24 in6.1 mm
04:00 PM 35.0°F1.7°C 34.5°F1.4°C 98% Calm Calm -- 30.41 in1029.8 mb 0.03 in0.8 mm 0.00 in0.0 mm 0.24 in6.1 mm
04:05 PM 34.9°F1.6°C 34.4°F1.3°C 98% Calm Calm -- 30.41 in1029.8 mb 0.03 in0.8 mm 0.00 in0.0 mm 0.24 in6.1 mm
04:10 PM 34.8°F1.6°C 34.3°F1.3°C 98% Calm Calm -- 30.42 in1030.1 mb 0.03 in0.8 mm 0.00 in0.0 mm 0.24 in6.1 mm
04:15 PM 34.8°F1.6°C 34.3°F1.3°C 98% Calm Calm -- 30.42 in1030.1 mb 0.03 in0.8 mm 0.00 in0.0 mm 0.24 in6.1 mm
04:20 PM 34.7°F1.5°C 34.2°F1.2°C 98% Calm Calm -- 30.42 in1030.1 mb 0.03 in0.8 mm 0.00 in0.0 mm 0.24 in6.1 mm
04:25 PM 34.7°F1.5°C 33.9°F1.1°C 97% Calm Calm -- 30.42 in1030.1 mb 0.02 in0.5 mm 0.00 in0.0 mm 0.24 in6.1 mm
04:30 PM 34.6°F1.4°C 33.8°F1.0°C 97% Calm Calm -- 30.42 in1030.1 mb 0.02 in0.5 mm 0.00 in0.0 mm 0.24 in6.1 mm
04:35 PM 34.6°F1.4°C 33.8°F1.0°C 97% Calm Calm -- 30.41 in1029.8 mb 0.02 in0.5 mm 0.00 in0.0 mm 0.24 in6.1 mm
04:40 PM 34.5°F1.4°C 33.7°F0.9°C 97% Calm Calm -- 30.42 in1030.1 mb 0.02 in0.5 mm 0.00 in0.0 mm 0.24 in6.1 mm
04:45 PM 34.4°F1.3°C 33.6°F0.9°C 97% Calm Calm -- 30.42 in1030.1 mb 0.02 in0.5 mm 0.00 in0.0 mm 0.25 in6.4 mm
04:50 PM 34.3°F1.3°C 33.8°F1.0°C 98% Calm Calm -- 30.42 in1030.1 mb 0.02 in0.5 mm 0.00 in0.0 mm 0.25 in6.4 mm
04:55 PM 34.3°F1.3°C 33.8°F1.0°C 98% Calm Calm -- 30.42 in1030.1 mb 0.02 in0.5 mm 0.00 in0.0 mm 0.25 in6.4 mm
05:00 PM 34.3°F1.3°C 33.8°F1.0°C 98% Calm Calm -- 30.43 in1030.5 mb 0.02 in0.5 mm 0.00 in0.0 mm 0.25 in6.4 mm
05:05 PM 34.2°F1.2°C 33.7°F0.9°C 98% Calm Calm -- 30.43 in1030.5 mb 0.02 in0.5 mm 0.00 in0.0 mm 0.25 in6.4 mm
05:10 PM 34.1°F1.2°C 33.6°F0.9°C 98% Calm Calm -- 30.43 in1030.5 mb 0.01 in0.3 mm 0.00 in0.0 mm 0.25 in6.4 mm
05:15 PM 34.1°F1.2°C 33.3°F0.7°C 97% Calm Calm -- 30.43 in1030.5 mb 0.01 in0.3 mm 0.00 in0.0 mm 0.25 in6.4 mm
05:20 PM 34.0°F1.1°C 33.2°F0.7°C 97% Calm Calm -- 30.43 in1030.5 mb 0.01 in0.3 mm 0.00 in0.0 mm 0.25 in6.4 mm
05:25 PM 34.0°F1.1°C 33.2°F0.7°C 97% Calm Calm -- 30.43 in1030.5 mb 0.01 in0.3 mm 0.00 in0.0 mm 0.25 in6.4 mm
05:30 PM 33.9°F1.1°C 33.1°F0.6°C 97% Calm Calm -- 30.43 in1030.5 mb 0.01 in0.3 mm 0.00 in0.0 mm 0.25 in6.4 mm
05:35 PM 33.9°F1.1°C 33.1°F0.6°C 97% Calm Calm -- 30.44 in1030.8 mb 0.01 in0.3 mm 0.00 in0.0 mm 0.25 in6.4 mm
05:40 PM 33.8°F1.0°C 33.0°F0.6°C 97% Calm Calm -- 30.44 in1030.8 mb 0.01 in0.3 mm 0.00 in0.0 mm 0.25 in6.4 mm
05:45 PM 33.8°F1.0°C 33.3°F0.7°C 98% Calm Calm -- 30.44 in1030.8 mb 0.00 in0.0 mm 0.00 in0.0 mm 0.25 in6.4 mm
05:50 PM 33.7°F0.9°C 33.2°F0.7°C 98% Calm Calm -- 30.44 in1030.8 mb 0.00 in0.0 mm 0.00 in0.0 mm 0.25 in6.4 mm
05:55 PM 33.7°F0.9°C 33.2°F0.7°C 98% Calm Calm -- 30.44 in1030.8 mb 0.00 in0.0 mm 0.00 in0.0 mm 0.25 in6.4 mm
06:00 PM 33.7°F0.9°C 32.9°F0.5°C 97% Calm Calm -- 30.45 in1031.2 mb 0.00 in0.0 mm 0.00 in0.0 mm 0.25 in6.4 mm
06:05 PM 33.7°F0.9°C 32.9°F0.5°C 97% Calm Calm -- 30.45 in1031.2 mb 0.00 in0.0 mm 0.00 in0.0 mm 0.25 in6.4 mm
06:10 PM 33.6°F0.9°C 32.8°F0.4°C 97% Calm Calm -- 30.45 in1031.2 mb 0.01 in0.3 mm 0.12 in3.0 mm 0.26 in6.6 mm
06:15 PM 33.6°F0.9°C 33.1°F0.6°C 98% Calm Calm -- 30.45 in1031.2 mb 0.01 in0.3 mm 0.00 in0.0 mm 0.26 in6.6 mm
06:20 PM 33.6°F0.9°C 33.1°F0.6°C 98% Calm Calm -- 30.45 in1031.2 mb 0.01 in0.3 mm 0.00 in0.0 mm 0.26 in6.6 mm
06:25 PM 33.6°F0.9°C 33.1°F0.6°C 98% Calm Calm -- 30.45 in1031.2 mb 0.01 in0.3 mm 0.00 in0.0 mm 0.26 in6.6 mm
06:30 PM 33.5°F0.8°C 33.0°F0.6°C 98% Calm Calm -- 30.46 in1031.5 mb 0.01 in0.3 mm 0.00 in0.0 mm 0.26 in6.6 mm
06:35 PM 33.5°F0.8°C 33.0°F0.6°C 98% Calm Calm -- 30.46 in1031.5 mb 0.01 in0.3 mm 0.00 in0.0 mm 0.26 in6.6 mm
06:40 PM 33.5°F0.8°C 33.0°F0.6°C 98% Calm Calm -- 30.46 in1031.5 mb 0.01 in0.3 mm 0.00 in0.0 mm 0.26 in6.6 mm
06:45 PM 33.4°F0.8°C 32.9°F0.5°C 98% Calm Calm -- 30.46 in1031.5 mb 0.01 in0.3 mm 0.00 in0.0 mm 0.26 in6.6 mm
06:50 PM 33.4°F0.8°C 32.9°F0.5°C 98% Calm Calm -- 30.46 in1031.5 mb 0.01 in0.3 mm 0.00 in0.0 mm 0.26 in6.6 mm
06:55 PM 33.4°F0.8°C 32.9°F0.5°C 98% Calm Calm -- 30.47 in1031.8 mb 0.01 in0.3 mm 0.00 in0.0 mm 0.26 in6.6 mm
07:00 PM 33.4°F0.8°C 32.9°F0.5°C 98% Calm Calm -- 30.46 in1031.5 mb 0.01 in0.3 mm 0.00 in0.0 mm 0.26 in6.6 mm
07:05 PM 33.4°F0.8°C 32.9°F0.5°C 98% Calm Calm -- 30.46 in1031.5 mb 0.01 in0.3 mm 0.00 in0.0 mm 0.26 in6.6 mm
07:10 PM 33.4°F0.8°C 32.9°F0.5°C 98% Calm Calm -- 30.46 in1031.5 mb 0.00 in0.0 mm 0.00 in0.0 mm 0.26 in6.6 mm
07:15 PM 33.4°F0.8°C 32.9°F0.5°C 98% Calm Calm -- 30.46 in1031.5 mb 0.00 in0.0 mm 0.00 in0.0 mm 0.26 in6.6 mm
07:20 PM 33.3°F0.7°C 32.8°F0.4°C 98% Calm Calm -- 30.47 in1031.8 mb 0.00 in0.0 mm 0.00 in0.0 mm 0.26 in6.6 mm
07:25 PM 33.3°F0.7°C 32.8°F0.4°C 98% Calm Calm -- 30.48 in1032.2 mb 0.00 in0.0 mm 0.00 in0.0 mm 0.26 in6.6 mm
07:30 PM 33.4°F0.8°C 32.9°F0.5°C 98% Calm Calm -- 30.48 in1032.2 mb 0.00 in0.0 mm 0.00 in0.0 mm 0.26 in6.6 mm
07:35 PM 33.3°F0.7°C 32.8°F0.4°C 98% Calm Calm -- 30.48 in1032.2 mb 0.00 in0.0 mm 0.00 in0.0 mm 0.26 in6.6 mm
07:40 PM 33.3°F0.7°C 32.8°F0.4°C 98% Calm Calm -- 30.48 in1032.2 mb 0.00 in0.0 mm 0.00 in0.0 mm 0.26 in6.6 mm
07:45 PM 33.4°F0.8°C 32.9°F0.5°C 98% Calm Calm -- 30.48 in1032.2 mb 0.00 in0.0 mm 0.00 in0.0 mm 0.26 in6.6 mm
07:50 PM 33.4°F0.8°C 32.9°F0.5°C 98% Calm Calm -- 30.47 in1031.8 mb 0.00 in0.0 mm 0.00 in0.0 mm 0.26 in6.6 mm
07:55 PM 33.4°F0.8°C 32.9°F0.5°C 98% Calm Calm -- 30.47 in1031.8 mb 0.00 in0.0 mm 0.00 in0.0 mm 0.26 in6.6 mm
08:00 PM 33.4°F0.8°C 32.9°F0.5°C 98% Calm Calm -- 30.48 in1032.2 mb 0.00 in0.0 mm 0.00 in0.0 mm 0.26 in6.6 mm
08:05 PM 33.4°F0.8°C 32.9°F0.5°C 98% Calm Calm -- 30.48 in1032.2 mb 0.00 in0.0 mm 0.00 in0.0 mm 0.26 in6.6 mm
08:10 PM 33.4°F0.8°C 32.9°F0.5°C 98% Calm Calm -- 30.48 in1032.2 mb 0.00 in0.0 mm 0.00 in0.0 mm 0.26 in6.6 mm
08:15 PM 33.4°F0.8°C 32.9°F0.5°C 98% Calm Calm -- 30.48 in1032.2 mb 0.00 in0.0 mm 0.00 in0.0 mm 0.26 in6.6 mm
08:20 PM 33.3°F0.7°C 32.8°F0.4°C 98% Calm Calm -- 30.47 in1031.8 mb 0.00 in0.0 mm 0.00 in0.0 mm 0.26 in6.6 mm
08:25 PM 33.3°F0.7°C 32.8°F0.4°C 98% Calm Calm -- 30.47 in1031.8 mb 0.00 in0.0 mm 0.00 in0.0 mm 0.26 in6.6 mm
08:30 PM 33.3°F0.7°C 32.8°F0.4°C 98% Calm Calm -- 30.47 in1031.8 mb 0.00 in0.0 mm 0.00 in0.0 mm 0.26 in6.6 mm
08:35 PM 33.3°F0.7°C 32.8°F0.4°C 98% Calm Calm -- 30.47 in1031.8 mb 0.00 in0.0 mm 0.00 in0.0 mm 0.26 in6.6 mm
08:40 PM 33.2°F0.7°C 32.7°F0.4°C 98% Calm Calm -- 30.47 in1031.8 mb 0.00 in0.0 mm 0.00 in0.0 mm 0.26 in6.6 mm
08:45 PM 33.2°F0.7°C 32.7°F0.4°C 98% Calm Calm -- 30.47 in1031.8 mb 0.00 in0.0 mm 0.00 in0.0 mm 0.26 in6.6 mm
08:50 PM 33.2°F0.7°C 32.7°F0.4°C 98% Calm Calm -- 30.47 in1031.8 mb 0.00 in0.0 mm 0.00 in0.0 mm 0.26 in6.6 mm
08:55 PM 33.1°F0.6°C 32.6°F0.3°C 98% Calm Calm -- 30.47 in1031.8 mb 0.00 in0.0 mm 0.00 in0.0 mm 0.26 in6.6 mm
09:00 PM 33.0°F0.6°C 32.5°F0.3°C 98% Calm Calm -- 30.47 in1031.8 mb 0.00 in0.0 mm 0.00 in0.0 mm 0.26 in6.6 mm
09:05 PM 32.9°F0.5°C 32.4°F0.2°C 98% Calm Calm -- 30.47 in1031.8 mb 0.00 in0.0 mm 0.00 in0.0 mm 0.26 in6.6 mm
09:10 PM 32.9°F0.5°C 32.4°F0.2°C 98% Calm Calm -- 30.48 in1032.2 mb 0.00 in0.0 mm 0.00 in0.0 mm 0.26 in6.6 mm
09:15 PM 32.7°F0.4°C 32.2°F0.1°C 98% Calm Calm -- 30.48 in1032.2 mb 0.00 in0.0 mm 0.00 in0.0 mm 0.26 in6.6 mm
09:20 PM 32.6°F0.3°C 32.1°F0.1°C 98% Calm Calm -- 30.47 in1031.8 mb 0.00 in0.0 mm 0.00 in0.0 mm 0.26 in6.6 mm
09:25 PM 32.5°F0.3°C 32.0°F0.0°C 98% Calm Calm -- 30.48 in1032.2 mb 0.00 in0.0 mm 0.00 in0.0 mm 0.26 in6.6 mm
09:30 PM 32.4°F0.2°C 31.9°F-0.1°C 98% Calm Calm -- 30.48 in1032.2 mb 0.00 in0.0 mm 0.00 in0.0 mm 0.26 in6.6 mm
09:35 PM 32.4°F0.2°C 31.9°F-0.1°C 98% Calm Calm -- 30.48 in1032.2 mb 0.00 in0.0 mm 0.00 in0.0 mm 0.26 in6.6 mm
09:40 PM 32.3°F0.2°C 31.8°F-0.1°C 98% Calm Calm -- 30.48 in1032.2 mb 0.00 in0.0 mm 0.00 in0.0 mm 0.26 in6.6 mm
09:45 PM 32.1°F0.1°C 31.6°F-0.2°C 98% Calm Calm -- 30.48 in1032.2 mb 0.00 in0.0 mm 0.00 in0.0 mm 0.26 in6.6 mm
09:50 PM 32.0°F0.0°C 31.5°F-0.3°C 98% Calm Calm -- 30.47 in1031.8 mb 0.00 in0.0 mm 0.00 in0.0 mm 0.26 in6.6 mm
09:55 PM 31.9°F-0.1°C 31.4°F-0.3°C 98% Calm Calm -- 30.47 in1031.8 mb 0.00 in0.0 mm 0.00 in0.0 mm 0.26 in6.6 mm
10:00 PM 31.8°F-0.1°C 31.0°F-0.6°C 97% Calm Calm -- 30.47 in1031.8 mb 0.00 in0.0 mm 0.00 in0.0 mm 0.26 in6.6 mm
10:05 PM 31.7°F-0.2°C 30.9°F-0.6°C 97% Calm Calm -- 30.48 in1032.2 mb 0.00 in0.0 mm 0.00 in0.0 mm 0.26 in6.6 mm
10:10 PM 31.6°F-0.2°C 30.8°F-0.7°C 97% Calm Calm -- 30.48 in1032.2 mb 0.00 in0.0 mm 0.00 in0.0 mm 0.26 in6.6 mm
10:15 PM 31.4°F-0.3°C 30.6°F-0.8°C 97% Calm Calm -- 30.48 in1032.2 mb 0.00 in0.0 mm 0.00 in0.0 mm 0.26 in6.6 mm
10:20 PM 31.2°F-0.4°C 30.4°F-0.9°C 97% Calm Calm -- 30.48 in1032.2 mb 0.00 in0.0 mm 0.00 in0.0 mm 0.26 in6.6 mm
10:25 PM 31.1°F-0.5°C 30.3°F-0.9°C 97% Calm Calm -- 30.48 in1032.2 mb 0.00 in0.0 mm 0.00 in0.0 mm 0.26 in6.6 mm
10:30 PM 31.1°F-0.5°C 30.3°F-0.9°C 97% Calm Calm -- 30.48 in1032.2 mb 0.00 in0.0 mm 0.00 in0.0 mm 0.26 in6.6 mm
10:35 PM 31.0°F-0.6°C 30.2°F-1.0°C 97% Calm Calm -- 30.48 in1032.2 mb 0.00 in0.0 mm 0.00 in0.0 mm 0.26 in6.6 mm
10:40 PM 31.0°F-0.6°C 30.2°F-1.0°C 97% Calm Calm -- 30.48 in1032.2 mb 0.00 in0.0 mm 0.00 in0.0 mm 0.26 in6.6 mm
10:45 PM 30.9°F-0.6°C 30.1°F-1.1°C 97% Calm Calm -- 30.48 in1032.2 mb 0.00 in0.0 mm 0.00 in0.0 mm 0.26 in6.6 mm
10:50 PM 30.7°F-0.7°C 30.0°F-1.1°C 97% Calm Calm -- 30.48 in1032.2 mb 0.00 in0.0 mm 0.00 in0.0 mm 0.26 in6.6 mm
10:55 PM 30.6°F-0.8°C 29.9°F-1.2°C 97% Calm Calm -- 30.48 in1032.2 mb 0.00 in0.0 mm 0.00 in0.0 mm 0.26 in6.6 mm
11:00 PM 30.5°F-0.8°C 29.8°F-1.2°C 97% Calm Calm -- 30.48 in1032.2 mb 0.00 in0.0 mm 0.00 in0.0 mm 0.26 in6.6 mm
11:05 PM 30.4°F-0.9°C 29.7°F-1.3°C 97% Calm Calm -- 30.48 in1032.2 mb 0.00 in0.0 mm 0.00 in0.0 mm 0.26 in6.6 mm
11:10 PM 30.3°F-0.9°C 29.6°F-1.3°C 97% Calm Calm -- 30.48 in1032.2 mb 0.00 in0.0 mm 0.00 in0.0 mm 0.26 in6.6 mm
11:15 PM 30.2°F-1.0°C 29.5°F-1.4°C 97% Calm Calm -- 30.49 in1032.5 mb 0.00 in0.0 mm 0.00 in0.0 mm 0.26 in6.6 mm
11:20 PM 30.1°F-1.1°C 29.4°F-1.4°C 97% Calm Calm -- 30.49 in1032.5 mb 0.00 in0.0 mm 0.00 in0.0 mm 0.26 in6.6 mm
11:25 PM 30.1°F-1.1°C 29.4°F-1.4°C 97% Calm Calm -- 30.49 in1032.5 mb 0.00 in0.0 mm 0.00 in0.0 mm 0.26 in6.6 mm
11:30 PM 29.9°F-1.2°C 29.2°F-1.6°C 97% Calm Calm -- 30.48 in1032.2 mb 0.00 in0.0 mm 0.00 in0.0 mm 0.26 in6.6 mm
11:35 PM 29.7°F-1.3°C 29.0°F-1.7°C 97% Calm Calm -- 30.48 in1032.2 mb 0.00 in0.0 mm 0.00 in0.0 mm 0.26 in6.6 mm
11:40 PM 29.7°F-1.3°C 29.0°F-1.7°C 97% Calm Calm -- 30.48 in1032.2 mb 0.00 in0.0 mm 0.00 in0.0 mm 0.26 in6.6 mm
11:45 PM 29.6°F-1.3°C 28.9°F-1.7°C 97% Calm Calm -- 30.48 in1032.2 mb 0.00 in0.0 mm 0.00 in0.0 mm 0.26 in6.6 mm
11:50 PM 29.5°F-1.4°C 28.8°F-1.8°C 97% Calm Calm -- 30.48 in1032.2 mb 0.00 in0.0 mm 0.00 in0.0 mm 0.26 in6.6 mm
11:55 PM 29.4°F-1.4°C 28.7°F-1.8°C 97% Calm Calm -- 30.47 in1031.8 mb 0.00 in0.0 mm 0.00 in0.0 mm 0.26 in6.6 mm